createdAt,value
2018-10-09T00:01:59.366Z,6.00
2018-10-09T00:04:27.363Z,6.17
2018-10-09T00:06:55.408Z,6.63
2018-10-09T00:09:23.414Z,7.07
2018-10-09T00:11:51.426Z,6.73
2018-10-09T00:14:19.414Z,7.10
2018-10-09T00:16:47.818Z,6.50
2018-10-09T00:19:15.898Z,6.67
2018-10-09T00:21:43.918Z,6.43
2018-10-09T00:24:11.993Z,7.03
2018-10-09T00:26:40.077Z,7.17
2018-10-09T00:29:08.097Z,7.27
2018-10-09T00:31:37.034Z,7.20
2018-10-09T00:34:05.132Z,6.80
2018-10-09T00:36:33.342Z,6.50
2018-10-09T00:39:01.433Z,7.27
2018-10-09T00:41:29.501Z,7.27
2018-10-09T00:43:58.042Z,8.20
2018-10-09T00:46:29.190Z,7.57
2018-10-09T00:48:57.352Z,7.17
2018-10-09T00:51:25.374Z,7.63
2018-10-09T00:53:53.387Z,7.00
2018-10-09T00:56:21.476Z,7.70
2018-10-09T00:58:49.553Z,7.67
2018-10-09T01:01:17.570Z,7.73
2018-10-09T01:03:45.577Z,7.87
2018-10-09T01:06:13.626Z,6.13
2018-10-09T01:08:41.623Z,6.73
2018-10-09T01:11:09.815Z,6.67
2018-10-09T01:13:37.890Z,6.97
2018-10-09T01:16:05.906Z,7.47
2018-10-09T01:18:33.915Z,7.53
2018-10-09T01:21:01.985Z,7.57
2018-10-09T01:23:30.546Z,7.20
2018-10-09T01:25:58.559Z,7.90
2018-10-09T01:28:26.812Z,7.63
2018-10-09T01:30:54.861Z,7.53
2018-10-09T01:33:23.193Z,7.23
2018-10-09T01:35:51.399Z,7.33
2018-10-09T01:38:19.412Z,7.13
2018-10-09T01:40:47.426Z,7.20
2018-10-09T01:43:15.446Z,8.63
2018-10-09T01:45:43.710Z,7.23
2018-10-09T01:48:11.788Z,7.20
2018-10-09T01:50:39.903Z,7.93
2018-10-09T01:53:07.919Z,7.70
2018-10-09T01:55:35.917Z,8.00
2018-10-09T01:58:04.061Z,7.37
2018-10-09T02:00:32.102Z,8.73
2018-10-09T02:03:00.231Z,7.27
2018-10-09T02:05:28.394Z,7.30
2018-10-09T02:07:56.498Z,7.83
2018-10-09T02:10:27.530Z,7.60
2018-10-09T02:12:55.679Z,7.13
2018-10-09T02:15:23.758Z,7.20
2018-10-09T02:17:51.830Z,7.47
2018-10-09T02:20:22.882Z,7.70
2018-10-09T02:22:50.926Z,7.40
2018-10-09T02:25:18.985Z,8.07
2018-10-09T02:27:46.978Z,7.63
2018-10-09T02:30:15.056Z,7.93
2018-10-09T02:32:43.073Z,7.43
2018-10-09T02:35:11.198Z,7.83
2018-10-09T02:37:39.245Z,7.97
2018-10-09T02:40:07.307Z,8.03
2018-10-09T02:42:35.338Z,8.43
2018-10-09T02:45:03.582Z,7.93
2018-10-09T02:47:32.611Z,8.27
2018-10-09T02:50:00.633Z,7.63
2018-10-09T02:52:29.218Z,7.37
2018-10-09T02:54:57.234Z,7.37
2018-10-09T02:57:25.286Z,9.30
2018-10-09T02:59:53.827Z,7.47
2018-10-09T03:02:21.854Z,7.87
2018-10-09T03:04:49.873Z,8.20
2018-10-09T03:07:17.926Z,8.50
2018-10-09T03:09:46.012Z,7.90
2018-10-09T03:12:14.117Z,8.43
2018-10-09T03:14:42.158Z,9.07
2018-10-09T03:17:10.222Z,8.20
2018-10-09T03:19:38.228Z,8.40
2018-10-09T03:22:06.390Z,8.17
2018-10-09T03:24:34.398Z,8.70
2018-10-09T03:27:02.413Z,8.17
2018-10-09T03:29:30.479Z,7.33
2018-10-09T03:31:58.527Z,8.63
2018-10-09T03:34:26.579Z,8.23
2018-10-09T03:36:54.844Z,8.23
2018-10-09T03:39:22.866Z,8.63
2018-10-09T03:41:50.862Z,8.30
2018-10-09T03:44:18.918Z,8.47
2018-10-09T03:46:46.939Z,7.53
2018-10-09T03:49:16.437Z,7.70
2018-10-09T03:51:44.761Z,8.80
2018-10-09T03:54:12.876Z,8.40
2018-10-09T03:56:40.943Z,9.50
2018-10-09T03:59:09.287Z,8.33
2018-10-09T04:01:37.341Z,8.27
2018-10-09T04:04:05.386Z,7.87
2018-10-09T04:06:33.418Z,11.33
2018-10-09T04:09:01.541Z,9.07
2018-10-09T04:11:29.493Z,7.63
2018-10-09T04:13:57.580Z,8.07
2018-10-09T04:16:25.679Z,8.37
2018-10-09T04:18:53.732Z,8.57
2018-10-09T04:21:21.864Z,8.77
2018-10-09T04:23:49.861Z,8.70
2018-10-09T04:26:17.999Z,7.83
2018-10-09T04:28:46.350Z,9.67
2018-10-09T04:31:14.358Z,9.43
2018-10-09T04:33:42.486Z,9.33
2018-10-09T04:36:10.760Z,9.13
2018-10-09T04:38:38.793Z,9.20
2018-10-09T04:41:06.874Z,9.93
2018-10-09T04:43:35.186Z,8.27
2018-10-09T04:46:03.188Z,9.00
2018-10-09T04:48:31.945Z,9.20
2018-10-09T04:51:00.229Z,9.90
2018-10-09T04:53:28.234Z,9.13
2018-10-09T04:55:56.233Z,9.93
2018-10-09T04:58:24.286Z,10.70
2018-10-09T05:00:52.403Z,10.20
2018-10-09T05:03:20.374Z,9.97
2018-10-09T05:05:48.554Z,10.40
2018-10-09T05:08:16.722Z,9.83
2018-10-09T05:10:44.789Z,10.33
2018-10-09T05:13:13.467Z,10.37
2018-10-09T05:15:41.454Z,11.07
2018-10-09T05:18:09.518Z,10.23
2018-10-09T05:20:37.799Z,11.43
2018-10-09T05:23:06.319Z,11.87
2018-10-09T05:25:34.325Z,10.73
2018-10-09T05:28:02.421Z,11.87
2018-10-09T05:30:30.466Z,12.73
2018-10-09T05:32:58.527Z,11.60
2018-10-09T05:35:26.800Z,11.33
2018-10-09T05:37:54.961Z,12.60
2018-10-09T05:40:23.060Z,11.00
2018-10-09T05:42:51.442Z,11.97
2018-10-09T05:45:19.471Z,12.73
2018-10-09T05:47:47.510Z,12.70
2018-10-09T05:50:16.486Z,11.73
2018-10-09T05:52:44.821Z,12.27
2018-10-09T05:55:12.861Z,11.87
2018-10-09T05:57:41.099Z,12.30
2018-10-09T06:00:09.490Z,12.73
2018-10-09T06:02:37.556Z,12.23
2018-10-09T06:05:06.358Z,11.63
2018-10-09T06:07:34.549Z,11.70
2018-10-09T06:10:02.607Z,12.07
2018-10-09T06:12:30.794Z,11.50
2018-10-09T06:14:58.814Z,12.03
2018-10-09T06:17:26.910Z,11.93
2018-10-09T06:19:54.954Z,13.13
2018-10-09T06:22:23.173Z,12.47
2018-10-09T06:24:51.079Z,12.23
2018-10-09T06:27:20.042Z,12.20
2018-10-09T06:29:48.060Z,12.90
2018-10-09T06:32:16.062Z,12.40
2018-10-09T06:34:44.126Z,12.23
2018-10-09T06:37:12.193Z,12.57
2018-10-09T06:39:40.354Z,13.38
2018-10-09T06:42:08.929Z,13.43
2018-10-09T06:44:37.015Z,13.08
2018-10-09T06:47:05.496Z,14.30
2018-10-09T06:49:33.778Z,13.35
2018-10-09T06:52:02.054Z,12.88
2018-10-09T06:54:30.386Z,12.85
2018-10-09T06:56:58.369Z,12.78
2018-10-09T06:59:26.390Z,12.63
2018-10-09T07:01:54.777Z,13.48
2018-10-09T07:04:23.027Z,13.75
2018-10-09T07:06:51.083Z,11.80
2018-10-09T07:09:19.323Z,14.50
2018-10-09T07:11:47.415Z,14.75
2018-10-09T07:14:15.637Z,14.75
2018-10-09T07:16:43.747Z,15.15
2018-10-09T07:19:12.174Z,15.40
2018-10-09T07:21:40.193Z,14.75
2018-10-09T07:24:08.190Z,13.20
2018-10-09T07:26:36.222Z,15.60
2018-10-09T07:29:04.239Z,14.20
2018-10-09T07:31:32.255Z,14.80
2018-10-09T07:34:00.480Z,14.68
2018-10-09T07:36:28.473Z,13.80
2018-10-09T07:38:56.507Z,14.78
2018-10-09T07:41:24.697Z,14.73
2018-10-09T07:43:52.764Z,14.28
2018-10-09T07:46:20.802Z,13.48
2018-10-09T07:48:49.029Z,13.85
2018-10-09T07:51:17.043Z,14.83
2018-10-09T07:53:45.042Z,14.33
2018-10-09T07:56:13.348Z,15.83
2018-10-09T07:58:41.440Z,16.10
2018-10-09T08:01:09.481Z,15.72
2018-10-09T08:03:37.754Z,15.98
2018-10-09T08:06:05.927Z,15.90
2018-10-09T08:08:34.128Z,15.13
2018-10-09T08:11:02.287Z,15.53
2018-10-09T08:13:30.545Z,14.67
2018-10-09T08:15:58.767Z,15.03
2018-10-09T08:18:27.002Z,15.48
2018-10-09T08:20:55.079Z,15.03
2018-10-09T08:23:23.164Z,15.57
2018-10-09T08:25:51.527Z,15.60
2018-10-09T08:28:19.507Z,15.00
2018-10-09T08:30:47.552Z,15.10
2018-10-09T08:33:15.643Z,14.10
2018-10-09T08:35:43.661Z,14.43
2018-10-09T08:38:11.726Z,14.68
2018-10-09T08:40:40.255Z,14.10
2018-10-09T08:43:08.328Z,13.43
2018-10-09T08:45:36.351Z,14.85
2018-10-09T08:48:04.666Z,14.38
2018-10-09T08:50:32.679Z,14.60
2018-10-09T08:53:00.690Z,13.05
2018-10-09T08:55:28.736Z,14.53
2018-10-09T08:57:57.886Z,13.45
2018-10-09T09:00:25.956Z,15.40
2018-10-09T09:02:54.491Z,13.55
2018-10-09T09:05:22.510Z,14.25
2018-10-09T09:07:50.569Z,14.00
2018-10-09T09:10:18.638Z,12.93
2018-10-09T09:12:46.706Z,15.20
2018-10-09T09:15:15.145Z,14.53
2018-10-09T09:17:43.178Z,14.33
2018-10-09T09:20:11.233Z,14.70
2018-10-09T09:22:39.282Z,12.82
2018-10-09T09:25:07.352Z,14.98
2018-10-09T09:27:35.770Z,12.55
2018-10-09T09:30:03.839Z,13.00
2018-10-09T09:32:31.929Z,13.50
2018-10-09T09:34:59.959Z,13.25
2018-10-09T09:37:28.146Z,12.98
2018-10-09T09:39:56.152Z,13.35
2018-10-09T09:42:24.268Z,12.30
2018-10-09T09:44:52.304Z,12.18
2018-10-09T09:47:20.336Z,13.70
2018-10-09T09:49:48.387Z,13.00
2018-10-09T09:52:16.497Z,12.23
2018-10-09T09:54:45.549Z,12.20
2018-10-09T09:57:13.653Z,10.98
2018-10-09T09:59:42.017Z,11.85
2018-10-09T10:02:10.074Z,11.25
2018-10-09T10:04:38.126Z,11.65
2018-10-09T10:07:06.339Z,10.70
2018-10-09T10:09:34.426Z,11.08
2018-10-09T10:12:02.555Z,10.85
2018-10-09T10:14:31.167Z,9.95
2018-10-09T10:16:59.303Z,9.83
2018-10-09T10:19:27.314Z,10.45
2018-10-09T10:21:55.686Z,9.28
2018-10-09T10:24:23.735Z,10.18
2018-10-09T10:26:51.819Z,9.40
2018-10-09T10:29:20.325Z,9.68
2018-10-09T10:31:48.258Z,10.05
2018-10-09T10:34:16.270Z,9.55
2018-10-09T10:36:44.387Z,10.88
2018-10-09T10:39:13.041Z,8.75
2018-10-09T10:41:41.778Z,9.18
2018-10-09T10:44:10.274Z,11.90
2018-10-09T10:46:39.074Z,9.20
2018-10-09T10:49:10.970Z,11.15
2018-10-09T10:51:39.279Z,7.90
2018-10-09T10:54:07.311Z,8.95
2018-10-09T10:56:36.146Z,8.80
2018-10-09T10:59:04.436Z,7.20
2018-10-09T11:01:32.815Z,8.15
2018-10-09T11:04:01.069Z,7.17
2018-10-09T11:06:29.262Z,11.48
2018-10-09T11:08:57.269Z,7.08
2018-10-09T11:11:25.326Z,6.50
2018-10-09T11:13:53.375Z,7.30
2018-10-09T11:16:21.445Z,6.55
2018-10-09T11:18:49.807Z,6.97
2018-10-09T11:21:17.909Z,6.75
2018-10-09T11:23:45.826Z,6.72
2018-10-09T11:26:13.935Z,9.95
2018-10-09T11:28:42.001Z,10.40
2018-10-09T11:33:44.898Z,10.72
2018-10-09T11:36:13.006Z,10.75
2018-10-09T11:38:41.019Z,11.43
2018-10-09T11:41:09.114Z,6.97
2018-10-09T11:43:37.238Z,7.12
2018-10-09T11:46:05.259Z,6.67
2018-10-09T11:48:33.363Z,7.08
2018-10-09T11:51:01.403Z,7.55
2018-10-09T11:53:29.451Z,8.65
2018-10-09T11:55:57.464Z,8.20
2018-10-09T11:58:25.494Z,6.83
2018-10-09T12:00:55.427Z,6.53
2018-10-09T12:03:23.669Z,6.85
2018-10-09T12:05:51.778Z,6.42
2018-10-09T12:08:20.262Z,6.65
2018-10-09T12:10:48.451Z,6.12
2018-10-09T12:13:16.483Z,5.17
2018-10-09T12:15:44.541Z,5.60
2018-10-09T12:18:12.601Z,5.75
2018-10-09T12:20:40.815Z,6.58
2018-10-09T12:23:09.121Z,5.92
2018-10-09T12:25:37.144Z,5.37
2018-10-09T12:28:05.139Z,6.83
2018-10-09T12:30:33.147Z,5.75
2018-10-09T12:33:01.325Z,8.05
2018-10-09T12:35:29.350Z,7.05
2018-10-09T12:37:57.516Z,5.97
2018-10-09T12:40:25.551Z,7.35
2018-10-09T12:42:53.544Z,6.17
2018-10-09T12:45:22.139Z,5.30
2018-10-09T12:47:50.185Z,4.97
2018-10-09T12:50:18.302Z,6.87
2018-10-09T12:52:46.595Z,6.10
2018-10-09T12:55:15.261Z,9.08
2018-10-09T12:57:43.314Z,6.90
2018-10-09T13:00:13.053Z,6.03
2018-10-09T13:02:41.110Z,6.70
2018-10-09T13:05:09.515Z,6.33
2018-10-09T13:07:37.558Z,5.85
2018-10-09T13:10:05.820Z,6.87
2018-10-09T13:12:33.838Z,5.78
2018-10-09T13:15:02.031Z,7.28
2018-10-09T13:17:30.326Z,7.03
2018-10-09T13:19:58.346Z,6.53
2018-10-09T13:22:26.891Z,6.00
2018-10-09T13:24:54.692Z,7.00
2018-10-09T13:27:22.828Z,5.97
2018-10-09T13:29:50.943Z,5.65
2018-10-09T13:32:19.078Z,5.35
2018-10-09T13:34:47.078Z,6.05
2018-10-09T13:37:15.791Z,6.22
2018-10-09T13:39:43.983Z,5.40
2018-10-09T13:42:12.257Z,6.05
2018-10-09T13:44:40.458Z,6.25
2018-10-09T13:47:08.568Z,5.78
2018-10-09T13:49:36.590Z,6.40
2018-10-09T13:52:04.713Z,5.45
2018-10-09T13:54:32.759Z,5.60
2018-10-09T13:57:00.869Z,4.78
2018-10-09T13:59:28.902Z,7.10
2018-10-09T14:01:57.098Z,5.50
2018-10-09T14:04:25.102Z,5.58
2018-10-09T14:06:53.712Z,5.20
2018-10-09T14:09:21.824Z,10.75
2018-10-09T14:11:49.881Z,5.70
2018-10-09T14:14:18.173Z,5.10
2018-10-09T14:16:46.522Z,5.08
2018-10-09T14:19:14.547Z,5.95
2018-10-09T14:21:43.259Z,5.22
2018-10-09T14:24:12.105Z,5.55
2018-10-09T14:26:40.323Z,5.25
2018-10-09T14:29:08.391Z,5.83
2018-10-09T14:31:36.523Z,5.40
2018-10-09T14:34:04.589Z,5.93
2018-10-09T14:36:32.629Z,5.13
2018-10-09T14:39:00.771Z,5.50
2018-10-09T14:41:28.887Z,5.60
2018-10-09T14:43:57.691Z,5.63
2018-10-09T14:46:25.655Z,7.00
2018-10-09T14:48:53.659Z,7.37
2018-10-09T14:51:21.763Z,6.70
2018-10-09T14:53:49.751Z,5.93
2018-10-09T14:56:17.785Z,5.72
2018-10-09T14:58:46.092Z,7.03
2018-10-09T15:01:14.175Z,5.40
2018-10-09T15:03:42.474Z,6.33
2018-10-09T15:06:41.223Z,5.70
2018-10-09T15:09:11.434Z,5.83
2018-10-09T15:11:39.450Z,5.83
2018-10-09T15:14:08.325Z,6.35
2018-10-09T15:16:36.514Z,5.40
2018-10-09T15:19:05.058Z,6.50
2018-10-09T15:21:33.164Z,8.13
2018-10-09T15:24:01.193Z,6.35
2018-10-09T15:26:29.279Z,6.78
2018-10-09T15:28:57.466Z,7.15
2018-10-09T15:31:25.533Z,6.40
2018-10-09T15:33:53.575Z,6.28
2018-10-09T15:36:21.638Z,6.67
2018-10-09T15:38:50.175Z,6.10
2018-10-09T15:41:18.688Z,6.40
2018-10-09T15:43:46.790Z,6.53
2018-10-09T15:46:14.860Z,6.87
2018-10-09T15:48:43.250Z,7.50
2018-10-09T15:51:11.314Z,5.55
2018-10-09T15:53:39.347Z,9.30
2018-10-09T15:56:07.601Z,6.17
2018-10-09T15:58:35.607Z,7.40
2018-10-09T16:01:03.621Z,7.05
2018-10-09T16:03:31.770Z,14.93
2018-10-09T16:05:59.817Z,10.45
2018-10-09T16:08:27.836Z,9.20
2018-10-09T16:10:56.300Z,8.83
2018-10-09T16:13:24.360Z,8.65
2018-10-09T16:15:52.401Z,7.70
2018-10-09T16:18:20.494Z,13.90
2018-10-09T16:20:48.735Z,15.80
2018-10-09T16:23:16.968Z,8.60
2018-10-09T16:25:45.209Z,9.48
2018-10-09T16:28:13.321Z,8.60
2018-10-09T16:30:41.363Z,10.10
2018-10-09T16:33:09.420Z,11.30
2018-10-09T16:35:37.494Z,10.78
2018-10-09T16:38:05.572Z,9.05
2018-10-09T16:40:33.950Z,8.53
2018-10-09T16:43:01.927Z,11.05
2018-10-09T16:45:30.047Z,9.55
2018-10-09T16:47:58.267Z,10.05
2018-10-09T16:50:26.541Z,9.23
2018-10-09T16:52:54.544Z,9.40
2018-10-09T16:55:22.993Z,8.75
2018-10-09T16:57:51.070Z,14.53
2018-10-09T17:00:19.147Z,14.85
2018-10-09T17:02:47.274Z,9.78
2018-10-09T17:05:15.396Z,11.83
2018-10-09T17:07:43.522Z,12.10
2018-10-09T17:10:11.552Z,11.95
2018-10-09T17:12:39.794Z,10.45
2018-10-09T17:15:07.887Z,20.62
2018-10-09T17:17:36.142Z,12.15
2018-10-09T17:20:04.387Z,10.75
2018-10-09T17:22:32.613Z,17.20
2018-10-09T17:25:00.754Z,12.73
2018-10-09T17:27:28.774Z,11.35
2018-10-09T17:29:56.931Z,14.30
2018-10-09T17:32:24.991Z,14.13
2018-10-09T17:34:53.066Z,14.30
2018-10-09T17:37:21.136Z,11.35
2018-10-09T17:39:49.433Z,14.35
2018-10-09T17:42:17.480Z,16.37
2018-10-09T17:44:45.768Z,14.45
2018-10-09T17:47:17.233Z,17.73
2018-10-09T17:49:45.748Z,16.02
2018-10-09T17:52:13.966Z,11.33
2018-10-09T17:54:42.018Z,11.80
2018-10-09T17:59:53.034Z,14.20
2018-10-09T18:02:21.243Z,13.00
2018-10-09T18:04:49.581Z,14.18
2018-10-09T18:07:17.847Z,16.70
2018-10-09T18:09:46.550Z,12.60
2018-10-09T18:12:14.791Z,14.68
2018-10-09T18:14:43.164Z,12.53
2018-10-09T18:17:11.164Z,12.82
2018-10-09T18:19:39.452Z,13.83
2018-10-09T18:22:07.601Z,13.62
2018-10-09T18:24:35.672Z,13.45
2018-10-09T18:27:03.706Z,12.85
2018-10-09T18:29:32.242Z,12.90
2018-10-09T18:32:00.340Z,13.98
2018-10-09T18:34:28.378Z,12.05
2018-10-09T18:36:56.430Z,12.43
2018-10-09T18:39:24.456Z,12.95
2018-10-09T18:41:52.662Z,13.18
2018-10-09T18:44:20.675Z,13.00
2018-10-09T18:46:48.710Z,13.18
2018-10-09T18:49:16.812Z,14.13
2018-10-09T18:51:45.135Z,13.60
2018-10-09T18:54:13.397Z,13.10
2018-10-09T18:56:41.485Z,14.13
2018-10-09T18:59:09.702Z,14.83
2018-10-09T19:01:37.767Z,13.80
2018-10-09T19:04:06.287Z,15.80
2018-10-09T19:06:34.531Z,14.07
2018-10-09T19:09:03.054Z,15.03
2018-10-09T19:11:31.064Z,14.75
2018-10-09T19:13:59.133Z,13.05
2018-10-09T19:16:27.402Z,14.40
2018-10-09T19:18:55.438Z,14.60
2018-10-09T19:21:23.976Z,14.73
2018-10-09T19:23:52.138Z,15.10
2018-10-09T19:26:20.110Z,15.08
2018-10-09T19:28:48.606Z,16.42
2018-10-09T19:31:16.883Z,15.80
2018-10-09T19:33:45.039Z,15.08
2018-10-09T19:36:13.288Z,17.67
2018-10-09T19:38:41.366Z,18.23
2018-10-09T19:41:09.612Z,16.82
2018-10-09T19:43:37.844Z,19.32
2018-10-09T19:46:05.922Z,17.50
2018-10-09T19:48:34.211Z,17.25
2018-10-09T19:51:02.596Z,17.50
2018-10-09T19:53:30.846Z,18.85
2018-10-09T19:55:59.394Z,16.95
2018-10-09T19:58:27.715Z,17.62
2018-10-09T20:00:55.740Z,18.20
2018-10-09T20:03:23.743Z,18.98
2018-10-09T20:05:52.126Z,17.40
2018-10-09T20:08:20.223Z,17.92
2018-10-09T20:10:48.272Z,17.15
2018-10-09T20:13:22.128Z,16.45
2018-10-09T20:15:50.357Z,16.95
2018-10-09T20:18:18.621Z,17.23
2018-10-09T20:20:46.679Z,18.77
2018-10-09T20:23:14.758Z,18.20
2018-10-09T20:25:42.758Z,18.57
2018-10-09T20:28:10.836Z,18.75
2018-10-09T20:30:38.904Z,18.87
2018-10-09T20:33:07.053Z,20.77
2018-10-09T20:35:35.686Z,19.42
2018-10-09T20:38:03.707Z,19.00
2018-10-09T20:40:31.925Z,19.20
2018-10-09T20:43:00.147Z,19.77
2018-10-09T20:45:28.171Z,17.73
2018-10-09T20:47:56.200Z,18.85
2018-10-09T20:50:24.435Z,20.08
2018-10-09T20:52:52.434Z,19.30
2018-10-09T20:55:20.418Z,20.52
2018-10-09T20:57:48.430Z,18.15
2018-10-09T21:00:16.679Z,20.02
2018-10-09T21:02:44.751Z,18.73
2018-10-09T21:05:13.036Z,20.40
2018-10-09T21:07:41.062Z,19.48
2018-10-09T21:10:09.742Z,19.15
2018-10-09T21:12:38.236Z,20.17
2018-10-09T21:15:06.274Z,19.70
2018-10-09T21:17:34.616Z,20.20
2018-10-09T21:20:03.178Z,19.05
2018-10-09T21:22:31.347Z,19.50
2018-10-09T21:24:59.494Z,19.10
2018-10-09T21:27:27.530Z,20.77
2018-10-09T21:29:55.631Z,20.10
2018-10-09T21:32:23.630Z,20.65
2018-10-09T21:34:51.922Z,20.88
2018-10-09T21:37:19.963Z,20.30
2018-10-09T21:39:48.046Z,19.95
2018-10-09T21:42:16.169Z,18.95
2018-10-09T21:44:44.525Z,21.30
2018-10-09T21:47:12.554Z,20.65
2018-10-09T21:49:40.639Z,21.37
2018-10-09T21:52:08.897Z,22.13
2018-10-09T21:54:36.923Z,20.32
2018-10-09T21:57:04.988Z,20.55
2018-10-09T21:59:33.016Z,20.80
2018-10-09T22:02:01.175Z,19.92
2018-10-09T22:04:29.214Z,20.88
2018-10-09T22:06:57.225Z,21.27
2018-10-09T22:09:25.507Z,19.07
2018-10-09T22:11:53.938Z,18.85
2018-10-09T22:14:22.567Z,21.05
2018-10-09T22:16:50.591Z,19.52
2018-10-09T22:19:18.635Z,21.50
2018-10-09T22:21:47.410Z,20.60
2018-10-09T22:24:15.505Z,22.93
2018-10-09T22:26:43.530Z,21.10
2018-10-09T22:29:11.550Z,20.80
2018-10-09T22:31:39.630Z,21.35
2018-10-09T22:34:08.378Z,20.10
2018-10-09T22:36:36.466Z,20.12
2018-10-09T22:39:07.089Z,19.77
2018-10-09T22:41:35.146Z,20.85
2018-10-09T22:44:03.233Z,20.95
2018-10-09T22:46:31.424Z,20.57
2018-10-09T22:48:59.450Z,20.40
2018-10-09T22:51:27.537Z,22.82
2018-10-09T22:53:55.810Z,20.45
2018-10-09T22:56:23.822Z,20.23
2018-10-09T22:58:51.862Z,21.90
2018-10-09T23:01:20.034Z,20.37
2018-10-09T23:03:48.067Z,21.97
2018-10-09T23:06:16.129Z,21.23
2018-10-09T23:08:44.663Z,21.27
2018-10-09T23:11:12.685Z,21.50
2018-10-09T23:13:40.690Z,21.42
2018-10-09T23:16:09.275Z,21.07
2018-10-09T23:18:37.448Z,21.80
2018-10-09T23:21:05.564Z,21.05
2018-10-09T23:23:33.882Z,21.40
2018-10-09T23:26:01.912Z,21.42
2018-10-09T23:28:29.926Z,22.75
2018-10-09T23:30:58.048Z,20.32
2018-10-09T23:33:26.233Z,22.03
2018-10-09T23:35:54.272Z,20.27
2018-10-09T23:38:22.322Z,21.27
2018-10-09T23:40:50.440Z,21.73
2018-10-09T23:43:18.566Z,21.35
2018-10-09T23:45:47.154Z,21.23
2018-10-09T23:48:15.211Z,21.82
2018-10-09T23:50:43.390Z,21.15
2018-10-09T23:53:11.519Z,20.00
2018-10-09T23:55:39.544Z,21.25
2018-10-09T23:58:07.706Z,19.95
